createdAt,value
2018-09-05T00:02:07.244Z,16.63
2018-09-05T00:04:41.707Z,20.23
2018-09-05T00:07:16.142Z,18.60
2018-09-05T00:09:50.481Z,18.20
2018-09-05T00:12:24.875Z,16.07
2018-09-05T00:14:59.278Z,15.07
2018-09-05T00:17:33.651Z,13.33
2018-09-05T00:20:08.019Z,13.50
2018-09-05T00:22:42.398Z,14.37
2018-09-05T00:25:16.765Z,20.67
2018-09-05T00:27:51.117Z,16.23
2018-09-05T00:30:25.577Z,13.93
2018-09-05T00:32:59.936Z,17.43
2018-09-05T00:35:34.470Z,20.00
2018-09-05T00:38:08.820Z,17.93
2018-09-05T00:40:43.154Z,19.87
2018-09-05T00:43:17.520Z,18.83
2018-09-05T00:45:51.869Z,20.63
2018-09-05T00:48:26.222Z,20.33
2018-09-05T00:51:00.589Z,17.50
2018-09-05T00:53:35.011Z,19.77
2018-09-05T00:56:09.397Z,17.73
2018-09-05T00:58:43.789Z,19.80
2018-09-05T01:01:18.160Z,16.23
2018-09-05T01:03:52.525Z,18.10
2018-09-05T01:06:26.868Z,20.40
2018-09-05T01:09:01.245Z,19.10
2018-09-05T01:11:35.626Z,19.73
2018-09-05T01:14:09.985Z,18.40
2018-09-05T01:16:44.338Z,17.80
2018-09-05T01:19:18.731Z,22.00
2018-09-05T01:21:53.075Z,18.47
2018-09-05T01:24:27.478Z,19.93
2018-09-05T01:27:01.863Z,17.93
2018-09-05T01:29:37.738Z,19.17
2018-09-05T01:32:12.553Z,18.43
2018-09-05T01:34:47.195Z,18.20
2018-09-05T01:37:21.835Z,19.10
2018-09-05T01:39:56.254Z,20.77
2018-09-05T01:42:30.629Z,20.87
2018-09-05T01:45:05.071Z,21.37
2018-09-05T01:47:39.414Z,22.47
2018-09-05T01:50:13.763Z,21.03
2018-09-05T01:52:48.178Z,24.90
2018-09-05T01:55:22.570Z,24.43
2018-09-05T01:57:56.941Z,19.83
2018-09-05T02:00:33.486Z,22.40
2018-09-05T02:03:07.845Z,21.40
2018-09-05T02:05:42.218Z,23.43
2018-09-05T02:08:16.529Z,21.80
2018-09-05T02:10:50.959Z,23.67
2018-09-05T02:13:25.305Z,19.73
2018-09-05T02:15:59.693Z,19.67
2018-09-05T02:18:34.117Z,27.73
2018-09-05T02:21:08.470Z,22.10
2018-09-05T02:23:42.830Z,18.77
2018-09-05T02:26:17.170Z,20.07
2018-09-05T02:28:51.838Z,20.47
2018-09-05T02:31:26.226Z,19.40
2018-09-05T02:34:00.671Z,27.30
2018-09-05T02:36:35.053Z,22.60
2018-09-05T02:39:10.530Z,21.47
2018-09-05T02:41:44.951Z,18.57
2018-09-05T02:44:19.545Z,21.27
2018-09-05T02:46:53.918Z,20.37
2018-09-05T02:49:28.314Z,19.20
2018-09-05T02:52:02.649Z,20.97
2018-09-05T02:54:37.658Z,17.57
2018-09-05T02:57:12.052Z,23.50
2018-09-05T02:59:46.446Z,22.47
2018-09-05T03:02:20.842Z,21.33
2018-09-05T03:04:55.288Z,16.57
2018-09-05T03:07:29.676Z,17.00
2018-09-05T03:10:04.090Z,22.37
2018-09-05T03:12:38.484Z,19.63
2018-09-05T03:15:12.832Z,21.43
2018-09-05T03:17:47.197Z,26.40
2018-09-05T03:20:21.653Z,22.03
2018-09-05T03:22:56.039Z,21.00
2018-09-05T03:25:30.414Z,22.80
2018-09-05T03:28:04.751Z,19.90
2018-09-05T03:30:39.984Z,24.33
2018-09-05T03:33:14.365Z,22.83
2018-09-05T03:35:48.728Z,23.70
2018-09-05T03:38:23.102Z,25.27
2018-09-05T03:40:57.619Z,23.93
2018-09-05T03:43:32.005Z,17.10
2018-09-05T03:46:06.635Z,24.87
2018-09-05T03:48:41.000Z,19.00
2018-09-05T03:51:15.373Z,21.20
2018-09-05T03:53:49.739Z,19.07
2018-09-05T03:56:24.098Z,18.20
2018-09-05T03:58:58.522Z,20.87
2018-09-05T04:01:32.852Z,22.00
2018-09-05T04:04:07.313Z,20.33
2018-09-05T04:06:41.692Z,23.37
2018-09-05T04:09:16.078Z,23.30
2018-09-05T04:11:50.407Z,23.50
2018-09-05T04:14:24.745Z,23.33
2018-09-05T04:16:59.141Z,26.00
2018-09-05T04:19:33.502Z,26.50
2018-09-05T04:22:07.975Z,32.60
2018-09-05T04:24:42.312Z,27.27
2018-09-05T04:27:16.671Z,30.17
2018-09-05T04:29:51.375Z,21.33
2018-09-05T04:32:25.753Z,20.63
2018-09-05T04:35:00.254Z,30.40
2018-09-05T04:37:34.594Z,20.40
2018-09-05T04:40:09.060Z,20.80
2018-09-05T04:42:43.513Z,20.40
2018-09-05T04:45:18.042Z,20.03
2018-09-05T04:47:52.280Z,18.87
2018-09-05T04:50:26.689Z,21.87
2018-09-05T04:53:01.045Z,18.50
2018-09-05T04:55:35.435Z,24.43
2018-09-05T04:58:09.764Z,23.83
2018-09-05T05:00:44.131Z,24.60
2018-09-05T05:03:18.494Z,32.47
2018-09-05T05:05:53.114Z,26.80
2018-09-05T05:08:27.364Z,24.07
2018-09-05T05:11:01.937Z,28.90
2018-09-05T05:13:36.406Z,23.37
2018-09-05T05:16:42.919Z,19.87
2018-09-05T05:19:17.294Z,22.30
2018-09-05T05:21:51.606Z,23.07
2018-09-05T05:24:25.992Z,31.47
2018-09-05T05:27:00.321Z,27.60
2018-09-05T05:29:38.427Z,30.90
2018-09-05T05:32:12.747Z,24.93
2018-09-05T05:34:47.175Z,26.80
2018-09-05T05:37:21.535Z,26.53
2018-09-05T05:39:55.908Z,24.30
2018-09-05T05:42:30.296Z,25.80
2018-09-05T05:45:05.367Z,27.10
2018-09-05T05:47:39.723Z,22.57
2018-09-05T05:50:14.098Z,25.77
2018-09-05T05:52:48.522Z,29.30
2018-09-05T05:55:22.890Z,25.67
2018-09-05T05:57:57.174Z,21.00
2018-09-05T06:00:31.562Z,24.63
2018-09-05T06:03:06.009Z,25.23
2018-09-05T06:05:40.358Z,24.60
2018-09-05T06:08:14.698Z,21.60
2018-09-05T06:10:49.057Z,24.17
2018-09-05T06:13:23.415Z,21.23
2018-09-05T06:15:57.801Z,24.87
2018-09-05T06:18:32.223Z,26.10
2018-09-05T06:21:06.679Z,26.40
2018-09-05T06:23:41.124Z,25.33
2018-09-05T06:26:15.462Z,22.30
2018-09-05T06:28:49.848Z,24.23
2018-09-05T06:31:24.252Z,23.03
2018-09-05T06:33:58.618Z,25.40
2018-09-05T06:36:33.057Z,24.03
2018-09-05T06:39:09.682Z,23.60
2018-09-05T06:41:43.973Z,21.83
2018-09-05T06:44:18.298Z,21.73
2018-09-05T06:46:52.741Z,24.03
2018-09-05T06:49:27.125Z,21.77
2018-09-05T06:52:01.495Z,22.03
2018-09-05T06:54:35.835Z,24.27
2018-09-05T06:57:10.178Z,21.23
2018-09-05T06:59:44.600Z,22.53
2018-09-05T07:02:18.914Z,24.67
2018-09-05T07:04:53.366Z,27.60
2018-09-05T07:07:28.186Z,24.30
2018-09-05T07:10:02.595Z,25.27
2018-09-05T07:12:36.950Z,24.40
2018-09-05T07:15:11.322Z,24.53
2018-09-05T07:17:45.754Z,21.30
2018-09-05T07:20:20.159Z,22.60
2018-09-05T07:22:54.514Z,21.67
2018-09-05T07:25:28.899Z,21.53
2018-09-05T07:28:03.318Z,19.57
2018-09-05T07:30:37.901Z,17.80
2018-09-05T07:33:12.182Z,20.13
2018-09-05T07:35:46.622Z,15.77
2018-09-05T07:38:20.901Z,18.90
2018-09-05T07:40:55.359Z,19.23
2018-09-05T07:43:29.724Z,18.40
2018-09-05T07:46:04.094Z,17.93
2018-09-05T07:48:38.557Z,17.47
2018-09-05T07:51:12.971Z,19.73
2018-09-05T07:53:47.402Z,18.87
2018-09-05T07:56:21.870Z,17.93
2018-09-05T07:58:56.293Z,16.57
2018-09-05T08:01:30.898Z,19.90
2018-09-05T08:04:05.412Z,18.80
2018-09-05T08:06:39.754Z,20.40
2018-09-05T08:09:14.138Z,19.10
2018-09-05T08:11:48.528Z,16.90
2018-09-05T08:14:22.855Z,18.53
2018-09-05T08:16:57.205Z,19.43
2018-09-05T08:19:31.636Z,18.47
2018-09-05T08:22:06.057Z,19.87
2018-09-05T08:24:40.564Z,18.47
2018-09-05T08:27:15.029Z,16.83
2018-09-05T08:29:49.498Z,19.37
2018-09-05T08:32:23.842Z,18.17
2018-09-05T08:34:58.325Z,19.65
2018-09-05T08:37:32.903Z,17.70
2018-09-05T08:40:07.345Z,22.07
2018-09-05T08:42:42.156Z,19.83
2018-09-05T08:45:16.780Z,19.75
2018-09-05T08:47:50.956Z,19.17
2018-09-05T08:50:25.258Z,19.42
2018-09-05T08:52:59.700Z,17.75
2018-09-05T08:55:34.011Z,22.35
2018-09-05T08:58:08.391Z,19.35
2018-09-05T09:00:42.700Z,21.10
2018-09-05T09:03:17.134Z,19.50
2018-09-05T09:05:51.494Z,17.75
2018-09-05T09:08:25.837Z,19.73
2018-09-05T09:11:00.165Z,19.62
2018-09-05T09:13:34.542Z,20.25
2018-09-05T09:16:08.975Z,20.02
2018-09-05T09:18:43.436Z,18.25
2018-09-05T09:21:17.818Z,21.00
2018-09-05T09:23:52.158Z,19.15
2018-09-05T09:26:26.502Z,19.73
2018-09-05T09:29:01.119Z,20.32
2018-09-05T09:31:35.468Z,18.90
2018-09-05T09:34:09.822Z,19.98
2018-09-05T09:36:44.143Z,20.72
2018-09-05T09:39:18.572Z,18.20
2018-09-05T09:41:52.966Z,18.23
2018-09-05T09:44:27.354Z,19.67
2018-09-05T09:47:01.902Z,23.30
2018-09-05T09:49:36.273Z,22.67
2018-09-05T09:52:15.956Z,19.17
2018-09-05T09:54:51.715Z,19.05
2018-09-05T09:57:26.062Z,19.32
2018-09-05T10:00:00.434Z,19.77
2018-09-05T10:02:40.214Z,18.57
2018-09-05T10:05:19.759Z,18.82
2018-09-05T10:07:59.386Z,18.23
2018-09-05T10:10:39.089Z,19.85
2018-09-05T10:13:17.569Z,17.85
2018-09-05T10:15:57.315Z,18.40
2018-09-05T10:18:33.290Z,19.40
2018-09-05T10:21:07.848Z,18.55
2018-09-05T10:23:42.119Z,20.35
2018-09-05T10:26:16.547Z,19.23
2018-09-05T10:28:50.992Z,19.98
2018-09-05T10:31:25.454Z,19.55
2018-09-05T10:33:59.789Z,18.23
2018-09-05T10:36:34.526Z,17.70
2018-09-05T10:39:10.101Z,17.98
2018-09-05T10:41:44.538Z,17.65
2018-09-05T10:44:18.997Z,19.70
2018-09-05T10:46:53.317Z,20.20
2018-09-05T10:49:27.646Z,20.40
2018-09-05T10:52:06.409Z,18.57
2018-09-05T10:54:40.795Z,19.65
2018-09-05T10:57:15.187Z,19.07
2018-09-05T10:59:50.945Z,18.67
2018-09-05T11:02:30.814Z,20.17
2018-09-05T11:05:05.526Z,19.85
2018-09-05T11:07:39.935Z,18.80
2018-09-05T11:10:18.995Z,18.95
2018-09-05T11:12:53.461Z,18.92
2018-09-05T11:15:27.920Z,17.85
2018-09-05T11:18:02.403Z,18.70
2018-09-05T11:20:36.963Z,19.20
2018-09-05T11:23:11.422Z,18.07
2018-09-05T11:25:45.857Z,18.27
2018-09-05T11:28:20.293Z,19.20
2018-09-05T11:30:54.627Z,18.73
2018-09-05T11:33:29.114Z,18.52
2018-09-05T11:36:03.443Z,18.25
2018-09-05T11:38:38.093Z,17.90
2018-09-05T11:41:12.487Z,18.42
2018-09-05T11:43:47.041Z,17.67
2018-09-05T11:46:21.584Z,18.02
2018-09-05T11:48:56.045Z,17.40
2018-09-05T11:51:30.381Z,17.92
2018-09-05T11:54:04.888Z,17.90
2018-09-05T11:56:39.478Z,18.32
2018-09-05T11:59:13.858Z,16.35
2018-09-05T12:01:48.333Z,17.37
2018-09-05T12:04:22.848Z,15.30
2018-09-05T12:06:57.352Z,15.90
2018-09-05T12:09:33.544Z,15.88
2018-09-05T12:12:08.045Z,14.60
2018-09-05T12:14:42.488Z,15.20
2018-09-05T12:17:17.166Z,14.73
2018-09-05T12:19:52.621Z,15.10
2018-09-05T12:22:28.713Z,15.25
2018-09-05T12:25:06.644Z,15.72
2018-09-05T12:27:45.965Z,15.00
2018-09-05T12:30:29.592Z,16.40
2018-09-05T12:33:06.305Z,15.80
2018-09-05T12:35:43.271Z,15.95
2018-09-05T12:38:22.109Z,14.65
2018-09-05T12:41:12.071Z,14.15
2018-09-05T12:43:53.381Z,14.28
2018-09-05T12:46:29.146Z,16.42
2018-09-05T12:49:05.011Z,16.40
2018-09-05T12:51:42.119Z,15.20
2018-09-05T12:54:17.754Z,16.05
2018-09-05T12:56:54.528Z,17.20
2018-09-05T12:59:31.129Z,15.20
2018-09-05T13:02:06.027Z,16.05
2018-09-05T13:04:44.490Z,15.15
2018-09-05T13:07:21.449Z,14.83
2018-09-05T13:09:59.676Z,14.50
2018-09-05T13:12:36.182Z,14.25
2018-09-05T13:15:12.975Z,14.65
2018-09-05T13:17:51.078Z,15.23
2018-09-05T13:20:25.955Z,15.08
2018-09-05T13:23:01.719Z,15.60
2018-09-05T13:25:36.660Z,16.12
2018-09-05T13:28:11.899Z,16.12
2018-09-05T13:30:46.834Z,16.15
2018-09-05T13:33:21.781Z,15.58
2018-09-05T13:35:57.782Z,16.25
2018-09-05T13:38:33.483Z,16.50
2018-09-05T13:41:08.008Z,16.45
2018-09-05T13:43:42.415Z,15.55
2018-09-05T13:46:16.895Z,16.48
2018-09-05T13:48:51.358Z,16.55
2018-09-05T13:51:26.543Z,15.23
2018-09-05T13:54:01.038Z,14.78
2018-09-05T13:56:35.418Z,13.83
2018-09-05T13:59:09.801Z,14.63
2018-09-05T14:01:44.136Z,14.03
2018-09-05T14:04:18.499Z,12.53
2018-09-05T14:06:52.910Z,13.05
2018-09-05T14:09:27.336Z,12.73
2018-09-05T14:12:01.669Z,12.47
2018-09-05T14:14:36.067Z,12.82
2018-09-05T14:17:20.169Z,13.03
2018-09-05T14:19:54.536Z,14.83
2018-09-05T14:22:28.932Z,12.78
2018-09-05T14:25:03.392Z,14.45
2018-09-05T14:27:37.810Z,15.10
2018-09-05T14:30:12.083Z,14.90
2018-09-05T14:32:46.448Z,16.90
2018-09-05T14:35:20.806Z,17.25
2018-09-05T14:37:55.184Z,17.65
2018-09-05T14:40:29.586Z,14.23
2018-09-05T14:43:03.956Z,13.58
2018-09-05T14:45:38.306Z,14.43
2018-09-05T14:48:12.715Z,13.72
2018-09-05T14:50:47.082Z,13.70
2018-09-05T14:53:21.438Z,13.72
2018-09-05T14:55:56.041Z,14.33
2018-09-05T14:58:30.431Z,14.25
2018-09-05T15:01:04.827Z,14.68
2018-09-05T15:03:39.194Z,15.23
2018-09-05T15:06:13.614Z,13.22
2018-09-05T15:08:48.168Z,14.23
2018-09-05T15:11:22.556Z,13.38
2018-09-05T15:13:56.966Z,13.95
2018-09-05T15:16:31.401Z,16.15
2018-09-05T15:19:05.927Z,16.73
2018-09-05T15:21:40.322Z,16.02
2018-09-05T15:24:14.674Z,14.40
2018-09-05T15:26:49.027Z,14.03
2018-09-05T15:29:23.429Z,15.45
2018-09-05T15:31:57.879Z,14.38
2018-09-05T15:34:32.265Z,13.75
2018-09-05T15:37:06.646Z,16.57
2018-09-05T15:39:41.014Z,14.35
2018-09-05T15:42:15.510Z,15.03
2018-09-05T15:44:49.925Z,14.23
2018-09-05T15:47:24.270Z,14.58
2018-09-05T15:49:58.703Z,14.87
2018-09-05T15:52:33.085Z,15.98
2018-09-05T15:55:07.648Z,15.25
2018-09-05T15:57:43.036Z,14.38
2018-09-05T16:00:17.391Z,14.33
2018-09-05T16:02:51.810Z,14.68
2018-09-05T16:05:26.735Z,14.90
2018-09-05T16:08:01.098Z,14.45
2018-09-05T16:10:35.561Z,14.23
2018-09-05T16:13:10.168Z,13.90
2018-09-05T16:15:45.011Z,15.28
2018-09-05T16:18:19.486Z,15.00
2018-09-05T16:20:53.793Z,14.53
2018-09-05T16:23:29.786Z,14.30
2018-09-05T16:26:04.190Z,14.73
2018-09-05T16:28:38.868Z,14.53
2018-09-05T16:31:13.312Z,15.28
2018-09-05T16:33:47.865Z,16.95
2018-09-05T16:36:23.794Z,15.88
2018-09-05T16:38:58.137Z,13.88
2018-09-05T16:41:32.558Z,13.25
2018-09-05T16:44:06.962Z,13.83
2018-09-05T16:46:41.389Z,14.20
2018-09-05T16:49:15.842Z,15.30
2018-09-05T16:51:50.676Z,15.90
2018-09-05T16:54:30.276Z,15.48
2018-09-05T16:57:05.928Z,12.70
2018-09-05T16:59:40.375Z,13.00
2018-09-05T17:02:15.821Z,14.10
2018-09-05T17:04:50.706Z,14.70
2018-09-05T17:07:25.021Z,13.28
2018-09-05T17:09:59.638Z,13.13
2018-09-05T17:12:33.994Z,13.32
2018-09-05T17:15:08.363Z,13.85
2018-09-05T17:17:42.872Z,13.53
2018-09-05T17:20:17.399Z,13.58
2018-09-05T17:22:51.947Z,12.47
2018-09-05T17:25:26.317Z,15.05
2018-09-05T17:28:00.827Z,12.90
2018-09-05T17:30:35.253Z,14.10
2018-09-05T17:33:10.042Z,13.28
2018-09-05T17:35:44.830Z,13.95
2018-09-05T17:38:19.451Z,15.65
2018-09-05T17:40:55.698Z,12.60
2018-09-05T17:43:30.447Z,13.83
2018-09-05T17:46:05.260Z,12.55
2018-09-05T17:48:39.598Z,15.38
2018-09-05T17:51:14.260Z,13.95
2018-09-05T17:53:48.619Z,13.95
2018-09-05T17:56:23.268Z,13.25
2018-09-05T17:58:57.658Z,13.78
2018-09-05T18:01:32.207Z,13.85
2018-09-05T18:04:06.558Z,13.53
2018-09-05T18:06:41.904Z,14.53
2018-09-05T18:09:17.143Z,13.03
2018-09-05T18:11:52.525Z,12.37
2018-09-05T18:14:27.020Z,12.90
2018-09-05T18:17:02.097Z,12.70
2018-09-05T18:19:36.547Z,12.73
2018-09-05T18:22:11.022Z,13.10
2018-09-05T18:24:45.565Z,15.18
2018-09-05T18:27:20.005Z,13.07
2018-09-05T18:29:54.509Z,12.75
2018-09-05T18:32:29.230Z,13.27
2018-09-05T18:35:03.911Z,13.00
2018-09-05T18:37:38.361Z,15.73
2018-09-05T18:40:12.997Z,16.47
2018-09-05T18:42:47.919Z,13.67
2018-09-05T18:45:22.398Z,15.40
2018-09-05T18:47:56.933Z,15.00
2018-09-05T18:50:31.538Z,13.93
2018-09-05T18:53:10.535Z,17.27
2018-09-05T18:55:45.823Z,18.07
2018-09-05T18:58:21.769Z,14.37
2018-09-05T19:00:56.622Z,13.47
2018-09-05T19:03:31.333Z,13.77
2018-09-05T19:06:06.238Z,15.33
2018-09-05T19:08:41.032Z,15.23
2018-09-05T19:11:16.099Z,12.60
2018-09-05T19:13:51.623Z,14.27
2018-09-05T19:16:26.419Z,14.30
2018-09-05T19:19:00.828Z,13.60
2018-09-05T19:21:35.292Z,14.07
2018-09-05T19:24:09.775Z,14.13
2018-09-05T19:26:44.212Z,14.57
2018-09-05T19:29:18.840Z,18.67
2018-09-05T19:31:53.516Z,15.67
2018-09-05T19:34:28.043Z,14.83
2018-09-05T19:37:02.589Z,16.03
2018-09-05T19:39:36.954Z,16.33
2018-09-05T19:42:11.330Z,14.80
2018-09-05T19:44:45.686Z,15.07
2018-09-05T19:47:20.156Z,16.07
2018-09-05T19:49:54.526Z,14.53
2018-09-05T19:52:28.984Z,16.67
2018-09-05T19:55:03.355Z,14.53
2018-09-05T19:57:37.686Z,15.03
2018-09-05T20:00:12.221Z,17.47
2018-09-05T20:02:46.570Z,15.67
2018-09-05T20:05:21.068Z,16.07
2018-09-05T20:07:55.383Z,17.27
2018-09-05T20:10:30.043Z,15.97
2018-09-05T20:13:04.549Z,17.30
2018-09-05T20:15:38.912Z,15.23
2018-09-05T20:18:13.276Z,16.50
2018-09-05T20:20:47.610Z,16.27
2018-09-05T20:23:22.033Z,15.30
2018-09-05T20:25:56.382Z,18.03
2018-09-05T20:28:30.762Z,18.03
2018-09-05T20:31:05.341Z,15.33
2018-09-05T20:33:39.766Z,15.57
2018-09-05T20:36:14.235Z,16.00
2018-09-05T20:38:48.696Z,15.10
2018-09-05T20:41:23.059Z,17.17
2018-09-05T20:43:57.422Z,15.47
2018-09-05T20:46:31.791Z,16.17
2018-09-05T20:49:06.218Z,17.97
2018-09-05T20:51:40.600Z,19.27
2018-09-05T20:54:14.935Z,20.60
2018-09-05T20:56:49.284Z,17.73
2018-09-05T20:59:23.722Z,18.13
2018-09-05T21:01:58.173Z,19.20
2018-09-05T21:04:32.622Z,15.87
2018-09-05T21:07:07.338Z,18.60
2018-09-05T21:09:41.674Z,18.63
2018-09-05T21:12:16.099Z,19.63
2018-09-05T21:14:50.398Z,17.63
2018-09-05T21:17:24.770Z,18.57
2018-09-05T21:19:59.101Z,20.27
2018-09-05T21:22:33.552Z,20.27
2018-09-05T21:25:08.044Z,22.83
2018-09-05T21:27:42.424Z,21.77
2018-09-05T21:30:16.765Z,19.13
2018-09-05T21:32:51.186Z,19.03
2018-09-05T21:35:25.533Z,21.17
2018-09-05T21:37:59.972Z,23.23
2018-09-05T21:40:34.421Z,24.07
2018-09-05T21:43:08.843Z,20.87
2018-09-05T21:45:43.189Z,18.67
2018-09-05T21:48:17.591Z,20.30
2018-09-05T21:50:51.978Z,19.10
2018-09-05T21:53:26.355Z,18.40
2018-09-05T21:56:00.708Z,20.80
2018-09-05T21:58:35.148Z,28.20
2018-09-05T22:01:09.525Z,27.30
2018-09-05T22:03:43.881Z,22.63
2018-09-05T22:06:18.219Z,23.90
2018-09-05T22:08:52.555Z,23.27
2018-09-05T22:11:27.770Z,24.90
2018-09-05T22:14:02.146Z,24.93
2018-09-05T22:16:36.515Z,21.80
2018-09-05T22:19:10.857Z,24.10
2018-09-05T22:21:45.275Z,21.23
2018-09-05T22:24:19.658Z,18.23
2018-09-05T22:26:54.030Z,23.47
2018-09-05T22:29:28.662Z,22.47
2018-09-05T22:32:03.129Z,22.13
2018-09-05T22:34:37.491Z,22.73
2018-09-05T22:37:11.786Z,21.77
2018-09-05T22:39:46.241Z,35.53
2018-09-05T22:42:20.597Z,21.20
2018-09-05T22:45:06.001Z,23.33
2018-09-05T22:47:57.238Z,23.80
2018-09-05T22:51:14.259Z,20.50
2018-09-05T22:58:10.489Z,20.23
2018-09-05T23:02:58.107Z,17.37
2018-09-05T23:05:44.420Z,21.23
2018-09-05T23:08:39.238Z,17.13
2018-09-05T23:11:56.384Z,15.80
2018-09-05T23:14:41.942Z,19.23
2018-09-05T23:17:27.644Z,17.33
2018-09-05T23:21:25.557Z,20.00
2018-09-05T23:24:08.734Z,16.97
2018-09-05T23:26:43.097Z,20.30
2018-09-05T23:29:17.489Z,16.60
2018-09-05T23:31:51.946Z,17.83
2018-09-05T23:34:26.349Z,19.93
2018-09-05T23:37:00.724Z,17.50
2018-09-05T23:39:35.108Z,20.47
2018-09-05T23:42:09.500Z,21.37
2018-09-05T23:44:43.890Z,19.07
2018-09-05T23:47:18.268Z,18.10
2018-09-05T23:49:52.688Z,19.07
2018-09-05T23:52:27.145Z,18.53
2018-09-05T23:55:01.827Z,18.63
2018-09-05T23:57:36.199Z,14.60
